Time;durP1;ratioP1;P1;durP2;ratioP2;P2;SDS_P1;SDS_P2;PMS_P1;PMS_P2;Temp;Humidity;BMP_temperature;BMP_pressure;BME280_temperature;BME280_humidity;BME280_pressure;Samples;Min_cycle;Max_cycle;Signal;HPM_P1;HPM_P2
2023/12/28 00:00:27;;;;;;;19.50;2.70;;;;;;;;;;6306853;22;20198;-82
2023/12/28 00:02:54;;;;;;;12.80;2.10;;;;;;;;;;6306259;22;20223;-82
2023/12/28 00:05:21;;;;;;;15.90;3.27;;;;;;;;;;6306449;22;20272;-82
2023/12/28 00:07:49;;;;;;;16.00;2.80;;;;;;;;;;6306783;22;20225;-82
2023/12/28 00:10:18;;;;;;;15.07;2.30;;;;;;;;;;6306602;22;20178;-82
2023/12/28 00:12:45;;;;;;;13.77;2.63;;;;;;;;;;6305634;22;20209;-82
2023/12/28 00:15:12;;;;;;;16.83;2.20;;;;;;;;;;6306447;22;20496;-81
2023/12/28 00:17:39;;;;;;;14.90;2.30;;;;;;;;;;6306051;22;20186;-82
2023/12/28 00:20:07;;;;;;;19.20;3.27;;;;;;;;;;6306251;22;20204;-82
2023/12/28 00:22:37;;;;;;;18.53;2.83;;;;;;;;;;6306187;22;20197;-82
2023/12/28 00:25:04;;;;;;;17.07;2.53;;;;;;;;;;6306604;22;20169;-82
2023/12/28 00:27:33;;;;;;;18.90;2.80;;;;;;;;;;6306642;22;20186;-82
2023/12/28 00:30:01;;;;;;;13.47;2.53;;;;;;;;;;6306150;22;20177;-82
2023/12/28 00:32:28;;;;;;;18.50;3.17;;;;;;;;;;6305684;22;20198;-82
2023/12/28 00:34:55;;;;;;;12.87;2.47;;;;;;;;;;6306654;22;20245;-83
2023/12/28 00:37:22;;;;;;;18.73;3.13;;;;;;;;;;6306362;22;20172;-82
2023/12/28 00:39:50;;;;;;;18.40;2.80;;;;;;;;;;6306133;22;20205;-81
2023/12/28 00:42:17;;;;;;;13.60;2.53;;;;;;;;;;6306048;22;20197;-80
2023/12/28 00:44:45;;;;;;;18.70;2.77;;;;;;;;;;6306487;22;20228;-81
2023/12/28 00:47:12;;;;;;;17.33;2.60;;;;;;;;;;6305494;22;20201;-82
2023/12/28 00:49:40;;;;;;;16.07;2.40;;;;;;;;;;6305979;22;20190;-81
2023/12/28 00:52:07;;;;;;;18.10;2.83;;;;;;;;;;6305911;22;20208;-82
2023/12/28 00:54:34;;;;;;;14.50;2.43;;;;;;;;;;6306436;22;20277;-82
2023/12/28 00:57:01;;;;;;;18.93;3.30;;;;;;;;;;6305663;22;20179;-82
2023/12/28 00:59:29;;;;;;;18.27;2.50;;;;;;;;;;6306311;22;20628;-81
2023/12/28 01:01:58;;;;;;;15.97;2.20;;;;;;;;;;6305443;22;20254;-81
2023/12/28 01:04:25;;;;;;;18.27;2.40;;;;;;;;;;6305600;22;20204;-82
2023/12/28 01:06:53;;;;;;;13.03;2.00;;;;;;;;;;6306068;22;20701;-81
2023/12/28 01:09:20;;;;;;;15.53;2.57;;;;;;;;;;6305656;22;20236;-82
2023/12/28 01:11:47;;;;;;;19.23;2.70;;;;;;;;;;6305477;22;20177;-81
2023/12/28 01:14:14;;;;;;;13.97;2.97;;;;;;;;;;6306655;22;20170;-81
2023/12/28 01:16:44;;;;;;;18.37;2.83;;;;;;;;;;6305651;22;20208;-82
2023/12/28 01:19:12;;;;;;;19.23;2.70;;;;;;;;;;6306099;22;20228;-82
2023/12/28 01:21:39;;;;;;;16.57;2.47;;;;;;;;;;6305587;22;20226;-83
2023/12/28 01:24:07;;;;;;;17.63;2.40;;;;;;;;;;6305623;22;20589;-81
2023/12/28 01:26:34;;;;;;;16.83;2.20;;;;;;;;;;6305910;22;20647;-82
2023/12/28 01:29:02;;;;;;;20.60;2.67;;;;;;;;;;6305871;22;20172;-82
2023/12/28 01:31:30;;;;;;;17.13;2.57;;;;;;;;;;6305520;22;20193;-81
2023/12/28 01:33:57;;;;;;;19.63;2.60;;;;;;;;;;6305453;22;20198;-81
2023/12/28 01:36:25;;;;;;;16.67;2.63;;;;;;;;;;6305978;22;20256;-82
2023/12/28 01:38:53;;;;;;;15.80;2.50;;;;;;;;;;6305712;22;20169;-82
2023/12/28 01:41:20;;;;;;;18.00;2.47;;;;;;;;;;6305785;22;20229;-82
2023/12/28 01:43:47;;;;;;;19.77;2.47;;;;;;;;;;6305998;22;20177;-82
2023/12/28 01:46:16;;;;;;;19.20;2.67;;;;;;;;;;6305631;22;20257;-81
2023/12/28 01:48:45;;;;;;;21.97;2.57;;;;;;;;;;6305399;22;20245;-83
2023/12/28 01:51:13;;;;;;;15.87;2.43;;;;;;;;;;6305608;22;20174;-82
2023/12/28 01:53:42;;;;;;;16.43;2.60;;;;;;;;;;6306208;22;20197;-82
2023/12/28 01:56:09;;;;;;;14.53;2.37;;;;;;;;;;6305433;22;20213;-82
2023/12/28 01:58:37;;;;;;;26.20;2.93;;;;;;;;;;6304644;22;20200;-82
2023/12/28 02:01:04;;;;;;;21.87;2.37;;;;;;;;;;6305319;22;20225;-82
2023/12/28 02:03:31;;;;;;;22.13;2.80;;;;;;;;;;6305834;22;20253;-82
2023/12/28 02:05:58;;;;;;;14.23;2.07;;;;;;;;;;6305885;22;20204;-82
2023/12/28 02:08:26;;;;;;;15.60;2.70;;;;;;;;;;6305349;22;20568;-81
2023/12/28 02:10:54;;;;;;;21.40;3.10;;;;;;;;;;6305409;22;20174;-81
2023/12/28 02:13:22;;;;;;;23.50;2.90;;;;;;;;;;6305201;22;20170;-81
2023/12/28 02:15:51;;;;;;;21.47;2.67;;;;;;;;;;6305995;22;20200;-82
2023/12/28 02:18:21;;;;;;;21.90;2.70;;;;;;;;;;6304611;22;20197;-82
2023/12/28 02:20:48;;;;;;;16.87;2.40;;;;;;;;;;6304813;22;20190;-81
2023/12/28 02:23:16;;;;;;;16.73;2.30;;;;;;;;;;6305026;22;20514;-81
2023/12/28 02:25:44;;;;;;;15.67;2.13;;;;;;;;;;6305069;22;20215;-82
2023/12/28 02:28:11;;;;;;;20.00;2.80;;;;;;;;;;6305236;22;20185;-82
2023/12/28 02:30:39;;;;;;;21.30;2.90;;;;;;;;;;6304705;22;20575;-82
2023/12/28 02:33:11;;;;;;;17.53;2.50;;;;;;;;;;6305632;22;20174;-81
2023/12/28 02:35:41;;;;;;;20.07;2.77;;;;;;;;;;6305283;22;20289;-82
2023/12/28 02:38:10;;;;;;;19.67;2.90;;;;;;;;;;6304913;22;20679;-82
2023/12/28 02:40:38;;;;;;;15.60;2.67;;;;;;;;;;6305109;22;20174;-81
2023/12/28 02:43:07;;;;;;;24.47;3.27;;;;;;;;;;6304136;22;20201;-81
2023/12/28 02:45:34;;;;;;;13.27;2.20;;;;;;;;;;6304966;22;20166;-81
2023/12/28 02:48:01;;;;;;;18.37;3.10;;;;;;;;;;6305031;22;20205;-83
2023/12/28 02:50:30;;;;;;;22.93;2.60;;;;;;;;;;6304665;22;20201;-82
2023/12/28 02:52:57;;;;;;;20.10;3.03;;;;;;;;;;6304918;22;20174;-81
2023/12/28 02:55:24;;;;;;;23.07;2.70;;;;;;;;;;6304853;22;20170;-82
2023/12/28 02:57:52;;;;;;;17.53;2.87;;;;;;;;;;6304304;22;20212;-82
2023/12/28 03:00:20;;;;;;;14.30;2.37;;;;;;;;;;6305234;22;20201;-81
2023/12/28 03:02:47;;;;;;;19.03;2.30;;;;;;;;;;6304151;22;20276;-82
2023/12/28 03:05:16;;;;;;;17.60;2.43;;;;;;;;;;6304446;22;20485;-81
2023/12/28 03:07:43;;;;;;;20.17;2.60;;;;;;;;;;6305236;22;20217;-81
2023/12/28 03:10:11;;;;;;;15.37;2.20;;;;;;;;;;6304631;22;20253;-81
2023/12/28 03:12:38;;;;;;;13.80;2.00;;;;;;;;;;6304561;22;20173;-82
2023/12/28 03:15:07;;;;;;;16.60;2.47;;;;;;;;;;6304976;22;20185;-82
2023/12/28 03:17:36;;;;;;;21.40;2.33;;;;;;;;;;6278593;22;20215;-82
2023/12/28 03:20:05;;;;;;;16.43;2.60;;;;;;;;;;6304826;22;20170;-82
2023/12/28 03:22:32;;;;;;;20.00;2.77;;;;;;;;;;6305207;22;20532;-82
2023/12/28 03:24:59;;;;;;;22.67;2.70;;;;;;;;;;6304766;22;20172;-81
2023/12/28 03:27:26;;;;;;;18.97;2.70;;;;;;;;;;6304237;22;20706;-81
2023/12/28 03:29:53;;;;;;;18.60;2.33;;;;;;;;;;6303805;22;20181;-82
2023/12/28 03:32:20;;;;;;;20.97;3.27;;;;;;;;;;6306009;22;20202;-82
2023/12/28 03:34:49;;;;;;;18.10;2.73;;;;;;;;;;6307190;22;20245;-81
2023/12/28 03:37:16;;;;;;;20.53;3.57;;;;;;;;;;6306963;22;20208;-82
2023/12/28 03:39:43;;;;;;;22.13;2.83;;;;;;;;;;6306418;22;20582;-82
2023/12/28 03:42:11;;;;;;;27.57;3.20;;;;;;;;;;6306459;22;20304;-82
2023/12/28 03:44:38;;;;;;;20.50;2.87;;;;;;;;;;6306126;22;20185;-82
2023/12/28 03:47:05;;;;;;;19.57;2.40;;;;;;;;;;6305531;22;20644;-81
2023/12/28 03:49:32;;;;;;;18.53;2.40;;;;;;;;;;6306815;22;20219;-82
2023/12/28 03:52:01;;;;;;;21.13;3.00;;;;;;;;;;6306698;22;20678;-82
2023/12/28 03:54:28;;;;;;;19.77;2.23;;;;;;;;;;6305990;22;20190;-82
2023/12/28 03:56:55;;;;;;;20.97;2.43;;;;;;;;;;6306308;22;20177;-82
2023/12/28 03:59:22;;;;;;;25.53;2.77;;;;;;;;;;6306775;22;20652;-82
2023/12/28 04:01:49;;;;;;;19.97;2.70;;;;;;;;;;6306295;22;20608;-82
2023/12/28 04:04:17;;;;;;;19.30;2.70;;;;;;;;;;6306003;22;20252;-82
2023/12/28 04:06:44;;;;;;;21.17;2.63;;;;;;;;;;6305994;22;20244;-82
2023/12/28 04:09:14;;;;;;;21.27;2.50;;;;;;;;;;6305796;22;20699;-81
2023/12/28 04:11:41;;;;;;;30.10;3.27;;;;;;;;;;6306746;22;20202;-82
2023/12/28 04:14:09;;;;;;;19.90;2.90;;;;;;;;;;6306545;22;20172;-83
2023/12/28 04:16:36;;;;;;;27.07;2.60;;;;;;;;;;6306280;22;20249;-82
2023/12/28 04:19:03;;;;;;;26.27;3.50;;;;;;;;;;6306500;22;20244;-82
2023/12/28 04:21:30;;;;;;;18.90;2.77;;;;;;;;;;6306609;22;20177;-82
2023/12/28 04:23:58;;;;;;;28.80;3.93;;;;;;;;;;6305685;22;20170;-82
2023/12/28 04:26:26;;;;;;;25.60;3.03;;;;;;;;;;6306176;22;20253;-83
2023/12/28 04:28:54;;;;;;;17.27;2.80;;;;;;;;;;6305909;22;20506;-82
2023/12/28 04:31:21;;;;;;;23.67;2.50;;;;;;;;;;6305945;22;20170;-81
2023/12/28 04:33:48;;;;;;;24.57;2.83;;;;;;;;;;6306448;22;20189;-81
2023/12/28 04:36:15;;;;;;;22.00;3.17;;;;;;;;;;6306106;22;20702;-82
2023/12/28 04:38:42;;;;;;;16.80;2.83;;;;;;;;;;6305849;22;20648;-82
2023/12/28 04:41:11;;;;;;;23.07;3.10;;;;;;;;;;6305953;22;20241;-82
2023/12/28 04:43:40;;;;;;;28.30;3.00;;;;;;;;;;6305757;22;20605;-81
2023/12/28 04:46:07;;;;;;;27.13;2.57;;;;;;;;;;6306238;22;20290;-82
2023/12/28 04:48:34;;;;;;;22.37;2.93;;;;;;;;;;6305885;22;20269;-81
2023/12/28 04:51:02;;;;;;;19.70;2.30;;;;;;;;;;6306054;22;20162;-82
2023/12/28 04:53:30;;;;;;;24.90;3.07;;;;;;;;;;6305814;22;20170;-82
2023/12/28 04:55:57;;;;;;;25.90;3.17;;;;;;;;;;6306040;22;20263;-81
2023/12/28 04:58:24;;;;;;;22.00;2.80;;;;;;;;;;6306276;22;20194;-82
2023/12/28 05:00:53;;;;;;;23.57;2.60;;;;;;;;;;6305229;22;20212;-82
2023/12/28 05:03:20;;;;;;;21.27;3.07;;;;;;;;;;6306433;22;20222;-80
2023/12/28 05:05:47;;;;;;;21.30;2.83;;;;;;;;;;6306230;22;20282;-81
2023/12/28 05:08:14;;;;;;;23.07;2.80;;;;;;;;;;6304602;22;20285;-81
2023/12/28 05:10:41;;;;;;;21.30;2.67;;;;;;;;;;6306029;22;20240;-81
2023/12/28 05:13:09;;;;;;;27.87;3.47;;;;;;;;;;6306151;22;20214;-81
2023/12/28 05:15:36;;;;;;;22.37;2.80;;;;;;;;;;6305791;22;20223;-81
2023/12/28 05:18:06;;;;;;;25.80;3.00;;;;;;;;;;6305655;22;20204;-82
2023/12/28 05:20:33;;;;;;;23.67;3.60;;;;;;;;;;6305855;22;20173;-81
2023/12/28 05:23:00;;;;;;;21.40;2.67;;;;;;;;;;6305433;22;20251;-81
2023/12/28 05:25:28;;;;;;;24.40;2.60;;;;;;;;;;6305755;22;20190;-82
2023/12/28 05:27:55;;;;;;;19.23;2.53;;;;;;;;;;6304999;22;20189;-81
2023/12/28 05:30:22;;;;;;;29.80;3.10;;;;;;;;;;6305502;22;20182;-81
2023/12/28 05:32:49;;;;;;;21.53;2.90;;;;;;;;;;6306144;22;20170;-82
2023/12/28 05:35:18;;;;;;;24.43;3.00;;;;;;;;;;6305758;22;20197;-81
2023/12/28 05:37:45;;;;;;;24.90;3.10;;;;;;;;;;6304646;22;20166;-82
2023/12/28 05:40:12;;;;;;;22.67;2.63;;;;;;;;;;6306170;22;20194;-82
2023/12/28 05:42:40;;;;;;;20.80;2.80;;;;;;;;;;6305419;22;20225;-82
2023/12/28 05:45:07;;;;;;;27.57;2.93;;;;;;;;;;6305665;22;20215;-80
2023/12/28 05:47:34;;;;;;;18.30;3.00;;;;;;;;;;6305697;22;20636;-82
2023/12/28 05:50:03;;;;;;;30.00;3.10;;;;;;;;;;6305118;22;20197;-81
2023/12/28 05:52:32;;;;;;;21.77;3.00;;;;;;;;;;6305738;22;20166;-81
2023/12/28 05:54:59;;;;;;;22.97;2.70;;;;;;;;;;6304980;22;20177;-81
2023/12/28 05:57:29;;;;;;;18.80;2.70;;;;;;;;;;6305555;22;20200;-81
2023/12/28 05:59:56;;;;;;;26.17;3.37;;;;;;;;;;6306063;22;20188;-81
2023/12/28 06:02:24;;;;;;;17.03;2.50;;;;;;;;;;6305591;22;20232;-82
2023/12/28 06:04:51;;;;;;;29.70;2.80;;;;;;;;;;6305625;22;20251;-82
2023/12/28 06:07:18;;;;;;;26.33;3.03;;;;;;;;;;6305094;22;20220;-83
2023/12/28 06:09:46;;;;;;;19.23;2.83;;;;;;;;;;6305431;22;20193;-81
2023/12/28 06:12:14;;;;;;;20.77;2.57;;;;;;;;;;6305917;22;20174;-81
2023/12/28 06:14:41;;;;;;;25.07;3.40;;;;;;;;;;6305037;22;20233;-81
2023/12/28 06:17:09;;;;;;;23.57;3.30;;;;;;;;;;6305183;22;20249;-81
2023/12/28 06:19:36;;;;;;;27.97;3.40;;;;;;;;;;6304984;22;20229;-81
2023/12/28 06:22:03;;;;;;;20.93;2.73;;;;;;;;;;6305844;22;20205;-81
2023/12/28 06:24:30;;;;;;;26.13;2.93;;;;;;;;;;6305494;22;20252;-82
2023/12/28 06:26:59;;;;;;;20.30;3.13;;;;;;;;;;6305059;22;20170;-83
2023/12/28 06:29:26;;;;;;;24.07;3.33;;;;;;;;;;6305328;22;20547;-82
2023/12/28 06:31:53;;;;;;;23.00;3.23;;;;;;;;;;6304997;22;20547;-82
2023/12/28 06:34:20;;;;;;;26.07;3.00;;;;;;;;;;6304551;22;21051;-82
2023/12/28 06:36:47;;;;;;;28.40;3.63;;;;;;;;;;6305067;22;20193;-81
2023/12/28 06:39:14;;;;;;;18.83;4.13;;;;;;;;;;6304734;22;20279;-81
2023/12/28 06:41:41;;;;;;;17.07;3.57;;;;;;;;;;6305407;22;20205;-82
2023/12/28 06:44:14;;;;;;;25.03;4.23;;;;;;;;;;6305523;22;20229;-82
2023/12/28 06:46:41;;;;;;;22.33;3.77;;;;;;;;;;6304724;22;20567;-82
2023/12/28 06:49:09;;;;;;;20.80;3.27;;;;;;;;;;6304971;22;20201;-82
2023/12/28 06:51:36;;;;;;;18.67;3.43;;;;;;;;;;6305824;22;20205;-82
2023/12/28 06:54:03;;;;;;;19.57;3.60;;;;;;;;;;6304878;22;20517;-82
2023/12/28 06:56:30;;;;;;;27.07;3.33;;;;;;;;;;6305072;22;20244;-81
2023/12/28 06:58:57;;;;;;;20.50;2.67;;;;;;;;;;6304635;22;20731;-81
2023/12/28 07:01:26;;;;;;;18.50;2.60;;;;;;;;;;6305079;22;20204;-82
2023/12/28 07:03:53;;;;;;;24.43;3.50;;;;;;;;;;6305036;22;20223;-82
2023/12/28 07:06:20;;;;;;;24.53;3.60;;;;;;;;;;6305551;22;20205;-82
2023/12/28 07:08:47;;;;;;;22.40;3.17;;;;;;;;;;6306759;22;20272;-81
2023/12/28 07:11:15;;;;;;;22.07;3.60;;;;;;;;;;6307588;22;20178;-82
2023/12/28 07:13:42;;;;;;;18.33;2.73;;;;;;;;;;6307405;22;20233;-82
2023/12/28 07:16:09;;;;;;;12.70;2.73;;;;;;;;;;6307222;22;20170;-82
2023/12/28 07:18:38;;;;;;;25.07;3.50;;;;;;;;;;6306682;22;20655;-81
2023/12/28 07:21:05;;;;;;;21.90;3.47;;;;;;;;;;6307623;22;20253;-81
2023/12/28 07:23:33;;;;;;;25.70;3.30;;;;;;;;;;6307267;22;20208;-82
2023/12/28 07:26:00;;;;;;;26.13;4.23;;;;;;;;;;6307290;22;20231;-82
2023/12/28 07:28:27;;;;;;;23.23;3.50;;;;;;;;;;6307170;22;20208;-81
2023/12/28 07:30:54;;;;;;;19.70;3.37;;;;;;;;;;6306873;22;20197;-81
2023/12/28 07:33:21;;;;;;;22.33;3.40;;;;;;;;;;6306631;22;20178;-82
2023/12/28 07:35:50;;;;;;;23.17;3.63;;;;;;;;;;6306589;22;20209;-82
2023/12/28 07:38:17;;;;;;;20.23;3.10;;;;;;;;;;6306364;22;20248;-80
2023/12/28 07:40:45;;;;;;;25.83;2.93;;;;;;;;;;6306985;22;20177;-80
2023/12/28 07:43:12;;;;;;;21.63;3.00;;;;;;;;;;6306995;22;20232;-81
2023/12/28 07:45:38;;;;;;;24.77;2.83;;;;;;;;;;6307929;22;20248;-81
2023/12/28 07:48:06;;;;;;;20.30;2.67;;;;;;;;;;6306112;22;20568;-82
2023/12/28 07:50:33;;;;;;;23.13;3.03;;;;;;;;;;6306951;22;20194;-82
2023/12/28 07:53:02;;;;;;;19.43;3.63;;;;;;;;;;6306508;22;20499;-81
2023/12/28 07:55:29;;;;;;;22.70;3.00;;;;;;;;;;6306850;22;20166;-81
2023/12/28 07:57:57;;;;;;;22.80;3.10;;;;;;;;;;6307055;22;20261;-82
2023/12/28 08:00:24;;;;;;;27.47;3.97;;;;;;;;;;6306901;22;20205;-80
2023/12/28 08:02:51;;;;;;;23.00;3.73;;;;;;;;;;6306591;22;20288;-81
2023/12/28 08:05:18;;;;;;;21.70;3.07;;;;;;;;;;6306836;22;20197;-82
2023/12/28 08:07:45;;;;;;;20.90;3.33;;;;;;;;;;6306775;22;20198;-81
2023/12/28 08:10:14;;;;;;;24.83;3.00;;;;;;;;;;6306336;22;20188;-84
2023/12/28 08:12:42;;;;;;;20.17;3.37;;;;;;;;;;6306746;22;20170;-82
2023/12/28 08:15:10;;;;;;;25.47;4.17;;;;;;;;;;6307047;22;20219;-82
2023/12/28 08:17:37;;;;;;;20.93;2.97;;;;;;;;;;6305409;22;20198;-82
2023/12/28 08:20:05;;;;;;;24.73;3.00;;;;;;;;;;6306516;22;20166;-84
2023/12/28 08:22:33;;;;;;;22.00;3.03;;;;;;;;;;6306195;22;20170;-82
2023/12/28 08:24:59;;;;;;;22.63;2.77;;;;;;;;;;6306236;22;20654;-82
2023/12/28 08:27:28;;;;;;;29.80;3.63;;;;;;;;;;6305916;22;20176;-82
2023/12/28 08:29:55;;;;;;;24.17;3.00;;;;;;;;;;6306824;22;20215;-82
2023/12/28 08:32:22;;;;;;;26.83;3.67;;;;;;;;;;6306612;22;20173;-82
2023/12/28 08:34:50;;;;;;;30.47;3.80;;;;;;;;;;6306085;22;20174;-82
2023/12/28 08:37:17;;;;;;;25.20;3.17;;;;;;;;;;6306213;22;20189;-83
2023/12/28 08:39:45;;;;;;;27.20;3.47;;;;;;;;;;6306139;22;20649;-83
2023/12/28 08:42:12;;;;;;;29.27;3.80;;;;;;;;;;6306137;22;20170;-83
2023/12/28 08:44:40;;;;;;;21.87;3.57;;;;;;;;;;6305624;22;20237;-82
2023/12/28 08:47:07;;;;;;;24.60;4.87;;;;;;;;;;6306421;22;20189;-82
2023/12/28 08:49:35;;;;;;;24.80;3.83;;;;;;;;;;6305609;22;20169;-82
2023/12/28 08:52:02;;;;;;;20.73;4.40;;;;;;;;;;6306456;22;20201;-82
2023/12/28 08:54:30;;;;;;;25.53;3.90;;;;;;;;;;6306267;22;20632;-82
2023/12/28 08:56:57;;;;;;;23.23;4.07;;;;;;;;;;6306184;22;20193;-82
2023/12/28 08:59:24;;;;;;;20.93;3.70;;;;;;;;;;6305850;22;20253;-83
2023/12/28 09:01:56;;;;;;;17.27;4.60;;;;;;;;;;6306152;22;20186;-84
2023/12/28 09:04:23;;;;;;;17.83;4.63;;;;;;;;;;6306199;22;20221;-84
2023/12/28 09:06:50;;;;;;;19.90;4.47;;;;;;;;;;6306250;22;20200;-84
2023/12/28 09:09:17;;;;;;;20.30;5.13;;;;;;;;;;6306101;22;20194;-83
2023/12/28 09:11:44;;;;;;;21.30;4.53;;;;;;;;;;6306098;22;20170;-83
2023/12/28 09:14:12;;;;;;;16.55;4.43;;;;;;;;;;6305851;22;20253;-84
2023/12/28 09:16:41;;;;;;;16.50;4.00;;;;;;;;;;6305936;22;20177;-84
2023/12/28 09:19:10;;;;;;;19.95;3.70;;;;;;;;;;6305135;22;20170;-84
2023/12/28 09:21:38;;;;;;;19.00;3.30;;;;;;;;;;6306454;22;20166;-84
2023/12/28 09:24:05;;;;;;;14.93;3.20;;;;;;;;;;6306249;22;20227;-84
2023/12/28 09:26:33;;;;;;;13.48;3.30;;;;;;;;;;6301063;22;20218;-83
2023/12/28 09:29:00;;;;;;;16.27;3.45;;;;;;;;;;6301345;22;20165;-82
2023/12/28 09:31:27;;;;;;;14.02;3.05;;;;;;;;;;6301885;22;20169;-83
2023/12/28 09:33:54;;;;;;;17.67;3.10;;;;;;;;;;6302195;22;20200;-84
2023/12/28 09:36:23;;;;;;;15.00;2.65;;;;;;;;;;6301365;22;20227;-83
2023/12/28 09:38:51;;;;;;;17.40;3.67;;;;;;;;;;6302029;22;20262;-83
2023/12/28 09:41:18;;;;;;;13.55;3.42;;;;;;;;;;6301716;22;20173;-82
2023/12/28 09:43:51;;;;;;;17.10;3.17;;;;;;;;;;6301822;22;20229;-84
2023/12/28 09:46:18;;;;;;;17.60;3.08;;;;;;;;;;6302107;22;20197;-83
2023/12/28 09:48:46;;;;;;;19.15;4.05;;;;;;;;;;6300764;22;20196;-82
2023/12/28 09:51:13;;;;;;;14.80;3.20;;;;;;;;;;6304527;22;20170;-84
2023/12/28 09:53:42;;;;;;;19.02;3.55;;;;;;;;;;6306218;22;20170;-82
2023/12/28 09:56:10;;;;;;;16.80;2.95;;;;;;;;;;6305455;22;20180;-83
2023/12/28 09:58:37;;;;;;;19.30;2.60;;;;;;;;;;6305310;22;20192;-83
2023/12/28 10:01:05;;;;;;;22.13;3.78;;;;;;;;;;6305942;22;20170;-84
2023/12/28 10:03:32;;;;;;;16.80;2.85;;;;;;;;;;6305759;22;20233;-83
2023/12/28 10:05:59;;;;;;;25.27;3.72;;;;;;;;;;6305562;22;20627;-82
2023/12/28 10:08:26;;;;;;;14.80;3.05;;;;;;;;;;6305654;22;20198;-82
2023/12/28 10:10:55;;;;;;;16.15;2.80;;;;;;;;;;6305632;22;20521;-83
2023/12/28 10:13:23;;;;;;;17.45;2.80;;;;;;;;;;6305027;22;20162;-82
2023/12/28 10:15:50;;;;;;;16.77;3.17;;;;;;;;;;6302827;22;20204;-81
2023/12/28 10:18:19;;;;;;;16.58;3.10;;;;;;;;;;6305584;22;20169;-83
2023/12/28 10:20:50;;;;;;;18.52;3.30;;;;;;;;;;6305029;22;20162;-81
2023/12/28 10:23:17;;;;;;;19.13;3.63;;;;;;;;;;6302592;22;20249;-85
2023/12/28 10:25:45;;;;;;;19.58;3.60;;;;;;;;;;6305095;22;20643;-81
2023/12/28 10:28:15;;;;;;;16.02;2.90;;;;;;;;;;6304439;22;20206;-82
2023/12/28 10:30:42;;;;;;;15.23;2.90;;;;;;;;;;6305215;22;20722;-82
2023/12/28 10:33:09;;;;;;;19.45;3.25;;;;;;;;;;6305616;22;20174;-82
2023/12/28 10:35:37;;;;;;;16.00;4.07;;;;;;;;;;6305437;22;20201;-80
2023/12/28 10:38:06;;;;;;;18.85;3.25;;;;;;;;;;6302446;22;20624;-81
2023/12/28 10:40:36;;;;;;;20.13;4.03;;;;;;;;;;6304359;22;20231;-82
2023/12/28 10:43:05;;;;;;;15.98;3.75;;;;;;;;;;6304378;22;20173;-82
2023/12/28 10:45:34;;;;;;;15.60;2.90;;;;;;;;;;6304843;22;20197;-82
2023/12/28 10:48:06;;;;;;;13.93;2.97;;;;;;;;;;6305138;22;20204;-81
2023/12/28 10:50:37;;;;;;;21.25;5.40;;;;;;;;;;6304543;22;20170;-81
2023/12/28 10:53:09;;;;;;;16.23;4.20;;;;;;;;;;6305640;22;20529;-81
2023/12/28 10:55:48;;;;;;;19.75;4.68;;;;;;;;;;6302901;22;20671;-81
2023/12/28 10:58:20;;;;;;;14.20;2.97;;;;;;;;;;6304705;22;20240;-82
2023/12/28 11:00:51;;;;;;;14.88;3.05;;;;;;;;;;6304855;22;20201;-81
2023/12/28 11:03:21;;;;;;;12.63;2.75;;;;;;;;;;6303080;22;20169;-81
2023/12/28 11:05:49;;;;;;;16.75;3.25;;;;;;;;;;6304737;22;20180;-80
2023/12/28 11:08:17;;;;;;;12.93;2.88;;;;;;;;;;6304447;22;20231;-80
2023/12/28 11:10:44;;;;;;;12.68;2.70;;;;;;;;;;6304078;22;20170;-80
2023/12/28 11:13:12;;;;;;;13.27;3.05;;;;;;;;;;6304931;22;20198;-82
2023/12/28 11:15:40;;;;;;;16.45;2.63;;;;;;;;;;6304336;22;20566;-81
2023/12/28 11:18:08;;;;;;;15.60;2.72;;;;;;;;;;6302234;22;20181;-79
2023/12/28 11:20:36;;;;;;;13.15;2.53;;;;;;;;;;6303740;22;20516;-78
2023/12/28 11:23:03;;;;;;;19.33;2.95;;;;;;;;;;6304213;22;20173;-79
2023/12/28 11:25:33;;;;;;;17.38;3.03;;;;;;;;;;6304165;22;20208;-79
2023/12/28 11:28:00;;;;;;;12.70;2.60;;;;;;;;;;6304689;22;20570;-78
2023/12/28 11:30:28;;;;;;;16.35;2.75;;;;;;;;;;6304783;22;20250;-80
2023/12/28 11:32:58;;;;;;;19.63;2.97;;;;;;;;;;6302406;22;20200;-79
2023/12/28 11:35:33;;;;;;;14.68;2.55;;;;;;;;;;6305079;22;20269;-79
2023/12/28 11:38:02;;;;;;;17.23;2.60;;;;;;;;;;6304581;22;20200;-80
2023/12/28 11:40:30;;;;;;;14.70;2.88;;;;;;;;;;6295992;22;20170;-80
2023/12/28 11:42:57;;;;;;;13.40;3.00;;;;;;;;;;6298871;22;20231;-79
2023/12/28 11:45:25;;;;;;;15.93;2.53;;;;;;;;;;6303020;22;20238;-78
2023/12/28 11:48:01;;;;;;;13.30;2.63;;;;;;;;;;6302963;22;20640;-79
2023/12/28 11:50:29;;;;;;;13.85;2.63;;;;;;;;;;6302500;22;20239;-79
2023/12/28 11:52:56;;;;;;;12.13;2.85;;;;;;;;;;6302869;22;20178;-79
2023/12/28 11:55:24;;;;;;;11.40;2.53;;;;;;;;;;6308652;22;20169;-80
2023/12/28 11:57:52;;;;;;;14.13;2.72;;;;;;;;;;6307129;22;20173;-81
2023/12/28 12:00:21;;;;;;;14.93;2.58;;;;;;;;;;6308015;22;20197;-80
2023/12/28 12:02:48;;;;;;;13.32;2.72;;;;;;;;;;6304657;22;20162;-81
2023/12/28 12:05:17;;;;;;;13.57;2.70;;;;;;;;;;6305564;22;20284;-80
2023/12/28 12:07:45;;;;;;;13.65;2.72;;;;;;;;;;6302989;22;20208;-81
2023/12/28 12:10:16;;;;;;;13.37;2.70;;;;;;;;;;6304665;22;20190;-80
2023/12/28 12:12:44;;;;;;;15.02;3.75;;;;;;;;;;6304524;22;20170;-80
2023/12/28 12:15:11;;;;;;;16.07;2.90;;;;;;;;;;6304827;22;20173;-80
2023/12/28 12:17:39;;;;;;;17.10;2.90;;;;;;;;;;6305908;22;20656;-80
2023/12/28 12:20:07;;;;;;;13.65;2.13;;;;;;;;;;6305807;22;20176;-80
2023/12/28 12:22:34;;;;;;;13.20;2.78;;;;;;;;;;6304902;22;20201;-80
2023/12/28 12:25:03;;;;;;;10.82;2.08;;;;;;;;;;6306303;22;20280;-80
2023/12/28 12:27:31;;;;;;;12.07;2.40;;;;;;;;;;6306571;22;20170;-80
2023/12/28 12:29:58;;;;;;;15.98;2.60;;;;;;;;;;6305658;22;20497;-80
2023/12/28 12:32:26;;;;;;;13.90;2.40;;;;;;;;;;6306080;22;20162;-79
2023/12/28 12:34:53;;;;;;;10.87;1.90;;;;;;;;;;6305724;22;20202;-79
2023/12/28 12:37:20;;;;;;;12.40;2.57;;;;;;;;;;6306120;22;20224;-79
2023/12/28 12:39:47;;;;;;;11.50;2.77;;;;;;;;;;6305547;22;20253;-78
2023/12/28 12:42:16;;;;;;;15.00;2.33;;;;;;;;;;6300697;22;20686;-78
2023/12/28 12:44:43;;;;;;;13.30;2.27;;;;;;;;;;6305230;22;20734;-79
2023/12/28 12:47:10;;;;;;;19.03;3.07;;;;;;;;;;6305873;22;20239;-79
2023/12/28 12:49:38;;;;;;;12.63;2.60;;;;;;;;;;6306019;22;20178;-80
2023/12/28 12:52:06;;;;;;;14.30;2.60;;;;;;;;;;6305442;22;20170;-78
2023/12/28 12:54:33;;;;;;;13.90;2.60;;;;;;;;;;6305491;22;20182;-79
2023/12/28 12:57:00;;;;;;;16.90;2.73;;;;;;;;;;6301345;22;20189;-78
2023/12/28 12:59:28;;;;;;;14.60;2.50;;;;;;;;;;6301828;22;20212;-80
2023/12/28 13:01:55;;;;;;;15.93;3.17;;;;;;;;;;6304487;22;20515;-80
2023/12/28 13:04:22;;;;;;;15.10;2.67;;;;;;;;;;6304569;22;20227;-80
2023/12/28 13:06:49;;;;;;;13.83;2.60;;;;;;;;;;6305044;22;20194;-79
2023/12/28 13:09:16;;;;;;;12.17;2.83;;;;;;;;;;6305062;22;20228;-79
2023/12/28 13:11:44;;;;;;;15.07;2.50;;;;;;;;;;6305569;22;20170;-79
2023/12/28 13:14:11;;;;;;;11.00;2.40;;;;;;;;;;6302004;22;20170;-79
2023/12/28 13:16:40;;;;;;;11.50;2.30;;;;;;;;;;6305240;22;20717;-81
2023/12/28 13:19:07;;;;;;;11.00;2.17;;;;;;;;;;6303434;22;20173;-80
2023/12/28 13:21:34;;;;;;;13.05;2.58;;;;;;;;;;6303678;22;20554;-80
2023/12/28 13:24:02;;;;;;;10.60;2.03;;;;;;;;;;6304978;22;20176;-81
2023/12/28 13:26:29;;;;;;;10.55;2.20;;;;;;;;;;6305209;22;20248;-80
2023/12/28 13:28:57;;;;;;;11.20;2.13;;;;;;;;;;6304592;22;20564;-81
2023/12/28 13:31:26;;;;;;;11.52;2.38;;;;;;;;;;6304601;22;20257;-83
2023/12/28 13:33:54;;;;;;;13.32;2.63;;;;;;;;;;6301786;22;20245;-83
2023/12/28 13:36:22;;;;;;;14.57;2.00;;;;;;;;;;6303809;22;20180;-83
2023/12/28 13:38:49;;;;;;;11.50;2.10;;;;;;;;;;6304451;22;20232;-82
2023/12/28 13:41:16;;;;;;;11.57;2.20;;;;;;;;;;6305001;22;20170;-83
2023/12/28 13:43:43;;;;;;;12.23;1.90;;;;;;;;;;6304096;22;20197;-83
2023/12/28 13:46:10;;;;;;;14.83;1.93;;;;;;;;;;6304256;22;20198;-82
2023/12/28 13:48:38;;;;;;;13.00;2.07;;;;;;;;;;6304711;22;20170;-82
2023/12/28 13:51:07;;;;;;;13.50;2.23;;;;;;;;;;6304105;22;20475;-82
2023/12/28 13:53:40;;;;;;;13.97;2.30;;;;;;;;;;6304317;22;20181;-84
2023/12/28 13:56:08;;;;;;;13.30;2.47;;;;;;;;;;6303676;22;20162;-85
2023/12/28 13:58:35;;;;;;;16.27;2.17;;;;;;;;;;6303957;22;20196;-84
2023/12/28 14:01:03;;;;;;;14.17;2.30;;;;;;;;;;6305015;22;20198;-85
2023/12/28 14:03:30;;;;;;;14.47;2.40;;;;;;;;;;6303564;22;20180;-84
2023/12/28 14:05:58;;;;;;;13.40;2.57;;;;;;;;;;6303846;22;20220;-84
2023/12/28 14:08:26;;;;;;;16.23;2.37;;;;;;;;;;6303283;22;20197;-84
2023/12/28 14:10:53;;;;;;;10.90;2.10;;;;;;;;;;6304707;22;20166;-83
2023/12/28 14:13:21;;;;;;;13.27;2.03;;;;;;;;;;6304404;22;20196;-84
2023/12/28 14:15:48;;;;;;;13.33;2.47;;;;;;;;;;6304306;22;20166;-84
2023/12/28 14:18:19;;;;;;;13.30;2.67;;;;;;;;;;6304910;22;20161;-84
2023/12/28 14:20:46;;;;;;;17.23;2.50;;;;;;;;;;6305267;22;20711;-84
2023/12/28 14:23:14;;;;;;;13.40;2.63;;;;;;;;;;6305030;22;20170;-84
2023/12/28 14:25:43;;;;;;;15.23;2.77;;;;;;;;;;6304458;22;20209;-85
2023/12/28 14:28:11;;;;;;;10.03;2.30;;;;;;;;;;6305219;22;20173;-85
2023/12/28 14:30:38;;;;;;;16.17;2.47;;;;;;;;;;6304448;22;20170;-84
2023/12/28 14:33:06;;;;;;;14.13;2.43;;;;;;;;;;6304096;22;20510;-83